createdAt,value
2016-06-14T00:00:57.416Z,994.35
2016-06-14T00:04:02.394Z,994.41
2016-06-14T00:07:15.856Z,994.41
2016-06-14T00:10:29.537Z,994.37
2016-06-14T00:13:42.655Z,994.29
2016-06-14T00:17:00.512Z,994.37
2016-06-14T00:20:05.459Z,994.31
2016-06-14T00:23:19.202Z,994.33
2016-06-14T00:26:33.055Z,994.37
2016-06-14T00:29:46.924Z,994.35
2016-06-14T00:33:00.624Z,994.27
2016-06-14T00:36:14.664Z,994.27
2016-06-14T00:39:28.704Z,994.41
2016-06-14T00:42:42.494Z,994.27
2016-06-14T00:46:00.445Z,994.31
2016-06-14T00:49:05.579Z,994.37
2016-06-14T00:52:19.494Z,994.31
2016-06-14T00:55:33.472Z,994.31
2016-06-14T00:58:51.387Z,994.29
2016-06-14T01:02:00.510Z,994.23
2016-06-14T01:05:05.645Z,994.29
2016-06-14T01:08:19.715Z,994.35
2016-06-14T01:11:33.506Z,994.31
2016-06-14T01:14:51.281Z,994.33
2016-06-14T01:18:00.481Z,994.27
2016-06-14T01:21:05.583Z,994.21
2016-06-14T01:24:19.498Z,994.23
2016-06-14T01:27:33.555Z,994.23
2016-06-14T01:30:51.486Z,994.23
2016-06-14T01:34:00.514Z,994.25
2016-06-14T01:37:05.538Z,994.21
2016-06-14T01:40:19.423Z,994.19
2016-06-14T01:43:33.011Z,994.19
2016-06-14T01:46:47.004Z,994.25
2016-06-14T01:50:00.828Z,994.21
2016-06-14T01:53:14.557Z,994.21
2016-06-14T01:56:26.535Z,994.23
2016-06-14T01:59:40.310Z,994.25
2016-06-14T02:02:58.069Z,994.05
2016-06-14T02:06:03.253Z,994.13
2016-06-14T02:09:17.012Z,994.09
2016-06-14T02:12:31.037Z,994.11
2016-06-14T02:15:45.046Z,994.15
2016-06-14T02:18:58.665Z,994.07
2016-06-14T02:22:12.567Z,994.05
2016-06-14T02:25:26.515Z,993.99
2016-06-14T02:28:40.477Z,993.99
2016-06-14T02:31:58.486Z,993.99
2016-06-14T02:35:03.546Z,993.95
2016-06-14T02:38:17.492Z,993.89
2016-06-14T02:41:31.595Z,993.99
2016-06-14T02:44:45.792Z,993.83
2016-06-14T02:47:59.254Z,993.81
2016-06-14T02:51:13.282Z,993.89
2016-06-14T02:54:27.166Z,993.85
2016-06-14T02:57:40.972Z,993.83
2016-06-14T03:00:58.903Z,993.91
2016-06-14T03:04:03.931Z,993.79
2016-06-14T03:07:17.645Z,993.73
2016-06-14T03:10:31.809Z,993.77
2016-06-14T03:13:45.959Z,993.75
2016-06-14T03:16:59.922Z,993.79
2016-06-14T03:20:13.809Z,993.77
2016-06-14T03:23:27.724Z,993.67
2016-06-14T03:26:41.795Z,993.75
2016-06-14T03:29:59.570Z,993.67
2016-06-14T03:33:04.630Z,993.83
2016-06-14T03:36:18.264Z,993.77
2016-06-14T03:39:32.164Z,993.79
2016-06-14T03:42:45.829Z,993.83
2016-06-14T03:45:59.323Z,993.83
2016-06-14T03:49:12.991Z,993.87
2016-06-14T03:52:26.735Z,993.83
2016-06-14T03:55:40.276Z,993.75
2016-06-14T03:58:58.160Z,993.75
2016-06-14T04:02:03.638Z,993.85
2016-06-14T04:05:17.650Z,993.77
2016-06-14T04:08:31.550Z,993.79
2016-06-14T04:11:45.528Z,993.79
2016-06-14T04:14:59.428Z,993.85
2016-06-14T04:18:13.924Z,993.87
2016-06-14T04:21:28.464Z,993.93
2016-06-14T04:24:42.865Z,993.83
2016-06-14T04:28:00.780Z,993.77
2016-06-14T04:31:06.481Z,993.83
2016-06-14T04:34:20.818Z,993.91
2016-06-14T04:37:34.935Z,993.95
2016-06-14T04:40:53.055Z,993.91
2016-06-14T04:43:58.220Z,993.91
2016-06-14T04:47:12.045Z,993.93
2016-06-14T04:50:25.726Z,993.91
2016-06-14T04:53:39.735Z,993.81
2016-06-14T04:56:57.775Z,993.87
2016-06-14T05:00:03.128Z,993.87
2016-06-14T05:03:17.157Z,993.87
2016-06-14T05:06:31.135Z,993.83
2016-06-14T05:09:44.050Z,993.81
2016-06-14T05:12:58.825Z,993.85
2016-06-14T05:16:12.634Z,993.85
2016-06-14T05:19:26.534Z,993.85
2016-06-14T05:22:40.090Z,993.83
2016-06-14T05:25:57.944Z,993.85
2016-06-14T05:29:03.265Z,993.77
2016-06-14T05:32:17.121Z,993.77
2016-06-14T05:35:30.708Z,993.87
2016-06-14T05:38:44.374Z,993.85
2016-06-14T05:41:58.071Z,993.85
2016-06-14T05:45:12.064Z,994.01
2016-06-14T05:48:26.014Z,993.91
2016-06-14T05:51:39.695Z,994.03
2016-06-14T05:54:57.266Z,993.91
2016-06-14T05:58:02.463Z,993.97
2016-06-14T06:01:16.022Z,993.91
2016-06-14T06:04:29.751Z,993.99
2016-06-14T06:07:43.698Z,993.99
2016-06-14T06:10:58.300Z,993.95
2016-06-14T06:14:03.153Z,994.05
2016-06-14T06:17:16.538Z,993.95
2016-06-14T06:20:30.377Z,993.97
2016-06-14T06:23:44.075Z,993.95
2016-06-14T06:26:59.287Z,993.99
2016-06-14T06:30:04.452Z,994.07
2016-06-14T06:33:18.603Z,994.05
2016-06-14T06:36:32.333Z,994.11
2016-06-14T06:39:46.092Z,994.11
2016-06-14T06:42:59.806Z,994.13
2016-06-14T06:46:13.293Z,994.05
2016-06-14T06:49:27.135Z,994.07
2016-06-14T06:52:41.179Z,994.07
2016-06-14T06:55:59.084Z,994.01
2016-06-14T06:59:04.155Z,994.11
2016-06-14T07:02:17.752Z,994.15
2016-06-14T07:05:30.505Z,994.19
2016-06-14T07:08:45.220Z,994.11
2016-06-14T07:11:58.824Z,994.11
2016-06-14T07:15:12.552Z,994.17
2016-06-14T07:18:26.330Z,994.15
2016-06-14T07:21:40.168Z,994.19
2016-06-14T07:24:58.365Z,994.11
2016-06-14T07:28:03.327Z,994.03
2016-06-14T07:31:17.648Z,994.09
2016-06-14T07:34:31.473Z,994.21
2016-06-14T07:37:45.247Z,994.13
2016-06-14T07:40:59.085Z,994.11
2016-06-14T07:44:12.813Z,994.03
2016-06-14T07:47:26.653Z,994.13
2016-06-14T07:50:40.350Z,994.05
2016-06-14T07:53:58.235Z,994.07
2016-06-14T07:57:03.025Z,994.07
2016-06-14T08:00:15.565Z,994.05
2016-06-14T08:03:30.500Z,994.11
2016-06-14T08:06:44.164Z,994.13
2016-06-14T08:09:58.659Z,994.13
2016-06-14T08:13:12.230Z,994.13
2016-06-14T08:16:25.742Z,994.13
2016-06-14T08:19:39.174Z,994.07
2016-06-14T08:22:56.886Z,994.11
2016-06-14T08:26:01.661Z,994.07
2016-06-14T08:29:14.968Z,994.03
2016-06-14T08:32:28.511Z,994.01
2016-06-14T08:35:42.708Z,994.15
2016-06-14T08:39:00.607Z,994.05
2016-06-14T08:42:06.102Z,993.97
2016-06-14T08:45:18.236Z,994.05
2016-06-14T08:52:12.132Z,994.07
2016-06-14T08:55:23.657Z,994.09
2016-06-14T08:58:37.403Z,994.07
2016-06-14T09:01:55.319Z,994.09
2016-06-14T09:05:00.375Z,994.07
2016-06-14T09:08:14.057Z,994.05
2016-06-14T09:11:27.958Z,994.09
2016-06-14T09:14:41.437Z,993.95
2016-06-14T09:17:59.790Z,993.89
2016-06-14T09:21:05.315Z,993.93
2016-06-14T09:24:19.637Z,993.97
2016-06-14T09:27:33.868Z,993.83
2016-06-14T09:30:48.002Z,993.77
2016-06-14T09:34:02.355Z,993.75
2016-06-14T09:37:16.896Z,993.73
2016-06-14T09:40:31.719Z,993.75
2016-06-14T09:43:43.885Z,993.79
2016-06-14T09:46:59.864Z,993.71
2016-06-14T09:50:13.186Z,993.71
2016-06-14T09:53:27.948Z,993.67
2016-06-14T09:56:42.597Z,993.67
2016-06-14T10:00:01.575Z,993.61
2016-06-14T10:03:07.554Z,993.55
2016-06-14T10:06:22.625Z,993.57
2016-06-14T10:09:37.247Z,993.59
2016-06-14T10:12:55.427Z,993.65
2016-06-14T10:15:59.890Z,993.49
2016-06-14T10:19:13.196Z,993.49
2016-06-14T10:22:25.705Z,993.35
2016-06-14T10:25:40.296Z,993.29
2016-06-14T10:28:58.539Z,993.31
2016-06-14T10:32:04.095Z,993.43
2016-06-14T10:35:18.479Z,993.39
2016-06-14T10:38:32.836Z,993.53
2016-06-14T10:41:46.907Z,993.59
2016-06-14T10:45:00.917Z,993.55
2016-06-14T10:48:14.956Z,993.79
2016-06-14T10:51:29.016Z,993.77
2016-06-14T10:54:42.994Z,993.71
2016-06-14T10:58:00.690Z,993.83
2016-06-14T11:01:06.154Z,993.87
2016-06-14T11:04:20.272Z,993.83
2016-06-14T11:07:34.487Z,993.93
2016-06-14T11:10:52.465Z,993.93
2016-06-14T11:14:01.677Z,993.87
2016-06-14T11:17:07.045Z,993.99
2016-06-14T11:20:21.196Z,993.89
2016-06-14T11:23:35.146Z,993.97
2016-06-14T11:26:47.952Z,993.87
2016-06-14T11:30:01.461Z,993.83
2016-06-14T11:33:15.423Z,993.77
2016-06-14T11:36:29.417Z,993.85
2016-06-14T11:39:43.055Z,993.79
2016-06-14T11:43:01.001Z,993.69
2016-06-14T11:46:06.463Z,993.67
2016-06-14T11:49:21.379Z,993.61
2016-06-14T11:52:35.048Z,993.57
2016-06-14T11:55:53.260Z,993.55
2016-06-14T11:58:59.003Z,993.55
2016-06-14T12:02:13.403Z,993.51
2016-06-14T12:05:27.710Z,993.51
2016-06-14T12:08:41.644Z,993.49
2016-06-14T12:11:59.965Z,993.49
2016-06-14T12:15:05.538Z,993.49
2016-06-14T12:18:19.624Z,993.45
2016-06-14T12:21:33.637Z,993.33
2016-06-14T12:24:47.615Z,993.41
2016-06-14T12:28:00.421Z,993.39
2016-06-14T12:31:15.461Z,993.47
2016-06-14T12:34:29.408Z,993.47
2016-06-14T12:37:43.468Z,993.45
2016-06-14T12:41:00.868Z,993.41
2016-06-14T12:44:05.564Z,993.47
2016-06-14T12:47:19.636Z,993.37
2016-06-14T12:50:34.254Z,993.31
2016-06-14T12:53:52.844Z,993.43
2016-06-14T12:56:58.182Z,993.37
2016-06-14T13:00:11.879Z,993.37
2016-06-14T13:03:26.200Z,993.31
2016-06-14T13:06:40.506Z,993.35
2016-06-14T13:09:58.988Z,993.26
2016-06-14T13:13:04.825Z,993.2
2016-06-14T13:16:19.475Z,993.33
2016-06-14T13:19:34.124Z,993.2
2016-06-14T13:22:52.872Z,993.14
2016-06-14T13:25:58.865Z,993.12
2016-06-14T13:29:13.562Z,993.08
2016-06-14T13:32:28.181Z,993.12
2016-06-14T13:35:42.690Z,993.04
2016-06-14T13:39:01.311Z,992.84
2016-06-14T13:42:07.289Z,992.91
2016-06-14T13:45:21.659Z,992.86
2016-06-14T13:48:36.199Z,992.86
2016-06-14T13:51:54.508Z,992.88
2016-06-14T13:55:00.110Z,992.88
2016-06-14T13:58:14.166Z,992.93
2016-06-14T14:01:28.253Z,992.93
2016-06-14T14:04:42.451Z,992.78
2016-06-14T14:08:00.588Z,992.84
2016-06-14T14:11:06.175Z,992.82
2016-06-14T14:14:20.293Z,992.74
2016-06-14T14:17:34.552Z,992.8
2016-06-14T14:20:52.972Z,992.74
2016-06-14T14:23:58.529Z,992.8
2016-06-14T14:27:12.333Z,992.78
2016-06-14T14:30:26.483Z,992.86
2016-06-14T14:33:40.884Z,992.78
2016-06-14T14:36:58.989Z,992.64
2016-06-14T14:40:04.531Z,992.72
2016-06-14T14:43:18.212Z,992.7
2016-06-14T14:46:31.235Z,992.74
2016-06-14T14:49:46.511Z,992.72
2016-06-14T14:53:00.788Z,992.66
2016-06-14T14:56:14.861Z,992.8
2016-06-14T14:59:29.057Z,992.74
2016-06-14T15:02:43.441Z,992.74
2016-06-14T15:06:01.485Z,992.82
2016-06-14T15:09:06.884Z,992.82
2016-06-14T15:12:19.847Z,992.7
2016-06-14T15:15:35.122Z,992.66
2016-06-14T15:18:53.243Z,992.8
2016-06-14T15:21:58.941Z,992.72
2016-06-14T15:25:13.043Z,992.72
2016-06-14T15:28:27.162Z,992.66
2016-06-14T15:31:41.015Z,992.66
2016-06-14T15:34:59.152Z,992.64
2016-06-14T15:38:04.756Z,992.5
2016-06-14T15:41:18.780Z,992.46
2016-06-14T15:44:32.805Z,992.56
2016-06-14T15:47:47.283Z,992.48
2016-06-14T15:51:01.466Z,992.5
2016-06-14T15:54:15.529Z,992.56
2016-06-14T15:57:29.582Z,992.52
2016-06-14T16:00:44.092Z,992.46
2016-06-14T16:04:01.934Z,992.42
2016-06-14T16:07:07.489Z,992.4
2016-06-14T16:10:21.707Z,992.28
2016-06-14T16:13:35.985Z,992.36
2016-06-14T16:16:53.969Z,992.42
2016-06-14T16:19:59.465Z,992.5
2016-06-14T16:23:13.817Z,992.52
2016-06-14T16:26:28.062Z,992.48
2016-06-14T16:29:42.493Z,992.54
2016-06-14T16:33:00.426Z,992.6
2016-06-14T16:36:06.107Z,992.54
2016-06-14T16:39:20.429Z,992.64
2016-06-14T16:42:34.751Z,992.66
2016-06-14T16:45:53.122Z,992.52
2016-06-14T16:48:58.679Z,992.66
2016-06-14T16:52:13.203Z,992.62
2016-06-14T16:55:27.790Z,992.68
2016-06-14T16:58:42.472Z,992.72
2016-06-14T17:02:09.906Z,992.68
2016-06-14T17:05:07.009Z,992.64
2016-06-14T17:08:21.456Z,992.58
2016-06-14T17:11:36.027Z,992.58
2016-06-14T17:14:54.634Z,992.56
2016-06-14T17:18:00.253Z,992.68
2016-06-14T17:21:14.824Z,992.66
2016-06-14T17:24:28.943Z,992.68
2016-06-14T17:27:43.327Z,992.7
2016-06-14T17:31:01.668Z,992.7
2016-06-14T17:34:06.943Z,992.6
2016-06-14T17:37:21.154Z,992.68
2016-06-14T17:40:35.211Z,992.48
2016-06-14T17:43:53.863Z,992.58
2016-06-14T17:46:59.747Z,992.68
2016-06-14T17:50:14.209Z,992.46
2016-06-14T17:53:28.329Z,992.68
2016-06-14T17:56:42.228Z,992.64
2016-06-14T18:00:00.318Z,992.74
2016-06-14T18:03:06.219Z,992.86
2016-06-14T18:06:19.883Z,992.8
2016-06-14T18:09:34.112Z,992.74
2016-06-14T18:12:48.371Z,992.89
2016-06-14T18:16:02.680Z,992.8
2016-06-14T18:19:16.268Z,992.95
2016-06-14T18:22:31.933Z,992.95
2016-06-14T18:25:46.286Z,992.97
2016-06-14T18:29:00.690Z,992.99
2016-06-14T18:32:15.088Z,993.08
2016-06-14T18:35:29.301Z,993.16
2016-06-14T18:38:43.545Z,993.12
2016-06-14T18:42:01.447Z,993.12
2016-06-14T18:45:06.911Z,993.06
2016-06-14T18:48:21.310Z,993.12
2016-06-14T18:51:35.710Z,993.08
2016-06-14T18:54:47.563Z,992.99
2016-06-14T18:58:01.950Z,993.12
2016-06-14T19:01:15.631Z,992.99
2016-06-14T19:04:30.265Z,993.14
2016-06-14T19:07:43.556Z,993.1
2016-06-14T19:11:00.256Z,993.27
2016-06-14T19:14:05.717Z,993.26
2016-06-14T19:17:16.774Z,993.16
2016-06-14T19:20:30.236Z,993.14
2016-06-14T19:23:44.293Z,993.22
2016-06-14T19:26:58.540Z,993.14
2016-06-14T19:30:03.954Z,993.22
2016-06-14T19:33:18.323Z,993.27
2016-06-14T19:36:31.693Z,993.37
2016-06-14T19:39:45.763Z,993.41
2016-06-14T19:42:59.464Z,993.45
2016-06-14T19:46:13.551Z,993.41
2016-06-14T19:49:26.560Z,993.43
2016-06-14T19:52:42.367Z,993.51
2016-06-14T19:55:56.972Z,993.45
2016-06-14T19:59:02.450Z,993.47
2016-06-14T20:02:16.131Z,993.39
2016-06-14T20:05:29.999Z,993.45
2016-06-14T20:08:44.353Z,993.47
2016-06-14T20:12:02.287Z,993.39
2016-06-14T20:15:07.483Z,993.43
2016-06-14T20:18:21.602Z,993.35
2016-06-14T20:21:35.673Z,993.39
2016-06-14T20:24:53.699Z,993.35
2016-06-14T20:27:58.039Z,993.53
2016-06-14T20:31:13.314Z,993.55
2016-06-14T20:34:26.135Z,993.57
2016-06-14T20:37:39.364Z,993.59
2016-06-14T20:40:57.595Z,993.47
2016-06-14T20:44:03.276Z,993.53
2016-06-14T20:47:17.285Z,993.53
2016-06-14T20:50:31.528Z,993.53
2016-06-14T20:53:45.788Z,993.57
2016-06-14T20:57:00.034Z,993.61
2016-06-14T21:00:13.856Z,993.57
2016-06-14T21:03:26.491Z,993.65
2016-06-14T21:06:38.531Z,993.63
2016-06-14T21:09:54.228Z,993.57
2016-06-14T21:12:59.771Z,993.63
2016-06-14T21:16:13.609Z,993.65
2016-06-14T21:19:24.774Z,993.73
2016-06-14T21:22:38.846Z,993.65
2016-06-14T21:25:56.903Z,993.67
2016-06-14T21:29:02.132Z,993.81
2016-06-14T21:32:13.158Z,993.71
2016-06-14T21:35:25.495Z,993.77
2016-06-14T21:38:40.630Z,993.79
2016-06-14T21:41:58.530Z,993.77
2016-06-14T21:45:04.057Z,993.81
2016-06-14T21:48:16.769Z,993.81
2016-06-14T21:51:27.591Z,993.85
2016-06-14T21:54:41.820Z,993.87
2016-06-14T21:58:00.035Z,993.79
2016-06-14T22:01:04.512Z,993.83
2016-06-14T22:04:19.648Z,993.83
2016-06-14T22:07:33.734Z,993.91
2016-06-14T22:10:46.508Z,993.83
2016-06-14T22:14:00.006Z,993.83
2016-06-14T22:17:13.655Z,993.81
2016-06-14T22:20:27.867Z,993.75
2016-06-14T22:23:42.064Z,993.87
2016-06-14T22:27:00.186Z,993.83
2016-06-14T22:30:05.852Z,993.81
2016-06-14T22:33:19.407Z,993.79
2016-06-14T22:36:33.324Z,993.69
2016-06-14T22:39:47.395Z,993.71
2016-06-14T22:46:49.260Z,993.71
2016-06-14T22:49:58.051Z,993.79
2016-06-14T22:53:02.376Z,993.85
2016-06-14T22:56:16.213Z,993.75
2016-06-14T22:59:30.112Z,993.73
2016-06-14T23:02:43.841Z,993.73
2016-06-14T23:05:59.427Z,993.83
2016-06-14T23:09:04.706Z,993.85
2016-06-14T23:12:18.465Z,993.81
2016-06-14T23:15:31.693Z,993.73
2016-06-14T23:18:45.577Z,993.75
2016-06-14T23:21:59.446Z,993.85
2016-06-14T23:25:13.317Z,993.87
2016-06-14T23:28:26.827Z,993.69
2016-06-14T23:31:37.196Z,993.81
2016-06-14T23:34:54.970Z,993.71
2016-06-14T23:38:00.511Z,993.77
2016-06-14T23:41:14.898Z,993.87
2016-06-14T23:44:27.516Z,993.71
2016-06-14T23:47:41.791Z,993.87
2016-06-14T23:50:59.973Z,993.83
2016-06-14T23:54:05.375Z,993.91
2016-06-14T23:57:19.603Z,994.01
